Latest Coastal Weather Observations for Swan Island

IDT60701

Issued at 7:12 am EDT Tuesday 7 February 2023 (issued every 10 minutes, with the page automatically refreshed every 10 minutes)

About coastal observations | Map of coastal stations | Coastal observations for TAS | Marine services | Other Formats
Station Details ID: 092123 Name: SWAN ISLAND Lat: -40.73 Lon: 148.12 Height: 15.0 m
Data from the previous 72 hours. | See also: Recent months at Swan Island
Date/Time
EDT
Wind Sea
Height
m
Swell Vis
km
Cloud Weather Temp
°C
Press
MSL
hPa
Rain since
9am
mm
Dir  Spd
kts
Gust
kts
Height
m
Period
s
Dir
07/07:00am E 8 11 - - - - - - - 16.8 1015.5 0.0
07/06:30am E 9 11 - - - - - - - 16.6 1015.2 0.0
07/06:00am NNW 3 5 - - - - - - - 15.9 1015.0 0.0
07/05:30am WSW 2 2 - - - - - - - 15.7 1014.8 0.0
07/05:00am WSW 3 4 - - - - - - - 15.4 1014.7 0.0
07/04:30am WSW 5 7 - - - - - - - 14.9 1014.5 0.0
07/04:00am WSW 5 7 - - - - - - - 15.0 1014.4 0.0
07/03:30am WSW 4 6 - - - - - - - 14.8 1014.6 0.0
07/03:00am SW 5 7 - - - - - - - 15.2 1014.7 0.0
07/02:30am WSW 6 8 - - - - - - - 15.3 1014.5 0.0
07/02:00am WSW 8 11 - - - - - - - 15.8 1014.4 0.0
07/01:30am WSW 9 13 - - - - - - - 16.2 1014.5 0.0
07/01:00am WSW 9 16 - - - - - - - 16.6 1014.5 0.0
07/12:30am W 13 20 - - - - - - - 17.2 1014.2 0.0
07/12:00am W 16 24 - - - - - - - 17.4 1014.1 0.0
 
Date/Time
EDT
Wind Sea
Height
m
Swell Vis
km
Cloud Weather Temp
°C
Press
MSL
hPa
Rain since
9am
mm
Dir  Spd
kts
Gust
kts
Height
m
Period
s
Dir
06/11:30pm W 18 23 - - - - - - - 17.8 1014.0 0.0
06/11:00pm W 16 22 - - - - - - - 18.3 1013.9 0.0
06/10:30pm W 16 21 - - - - - - - 18.7 1013.9 0.0
06/10:00pm W 19 24 - - - - - - - 18.9 1013.6 0.0
06/09:30pm WNW 15 25 - - - - - - - 18.7 1013.3 0.0
06/09:00pm WNW 17 24 - - - - - - - 18.8 1013.0 0.0
06/08:30pm WNW 15 23 - - - - - - - 18.8 1012.9 0.0
06/08:00pm WNW 18 25 - - - - - - - 18.9 1012.8 0.0
06/07:30pm WNW 18 29 - - - - - - - 18.8 1012.6 0.0
06/07:22pm WNW 18 29 - - - - - - - 18.8 1012.6 0.0
06/07:00pm WNW 20 28 - - - - - - - 19.0 1012.6 0.0
06/06:30pm WNW 20 27 - - - - - - - 19.2 1012.7 0.0
06/06:00pm WNW 21 30 - - - - - - - 19.4 1012.6 0.0
06/05:30pm WNW 21 28 - - - - - - - 19.8 1012.9 0.0
06/05:10pm WNW 18 29 - - - - - - - 20.2 1013.1 0.0
06/05:00pm WNW 20 28 - - - - - - - 20.1 1013.2 0.0
06/04:30pm W 18 28 - - - - - - - 20.6 1013.3 0.0
06/04:24pm WNW 16 27 - - - - - - - 21.0 1013.3 0.0
06/04:00pm WNW 17 24 - - - - - - - 20.6 1013.6 0.0
06/03:30pm WNW 17 27 - - - - - - - 20.9 1013.9 0.0
06/03:00pm WNW 16 25 - - - - - - - 21.0 1014.0 0.0
06/02:30pm WNW 16 26 - - - - - - - 20.2 1013.9 0.0
06/02:00pm WNW 18 31 - - - - - - - 20.3 1014.1 0.0
06/01:55pm WNW 18 31 - - - - - - - 19.9 1014.1 0.0
06/01:30pm WNW 17 26 - - - - - - - 20.4 1014.3 0.0
06/01:00pm WNW 17 25 - - - - - - - 20.0 1014.5 0.0
06/12:30pm WNW 17 24 - - - - - - - 20.1 1014.6 0.0
06/12:00pm WNW 17 24 - - - - - - - 19.6 1014.9 0.0
06/11:30am WNW 13 20 - - - - - - - 20.6 1015.1 0.0
06/11:00am W 14 20 - - - - - - - 20.6 1015.2 0.0
06/10:30am WNW 12 19 - - - - - - - 19.7 1015.4 0.0
06/10:00am WNW 12 18 - - - - - - - 18.9 1015.0 0.0
06/09:30am WNW 11 18 - - - - - - - 18.8 1014.9 0.0
06/09:00am WNW 11 18 - - - - - - - 18.4 1014.8 0.0
06/08:30am WNW 15 20 - - - - - - - 17.4 1014.7 0.0
06/08:00am WNW 17 25 - - - - - - - 17.1 1014.2 0.0
06/07:30am WNW 13 19 - - - - - - - 16.7 1013.9 0.0
06/07:00am WNW 14 19 - - - - - - - 16.3 1013.7 0.0
06/06:30am WNW 15 20 - - - - - - - 16.0 1013.5 0.0
06/06:00am WNW 15 22 - - - - - - - 16.0 1013.2 0.0
06/05:30am WNW 15 20 - - - - - - - 16.1 1013.0 0.0
06/05:00am WNW 15 22 - - - - - - - 16.0 1012.7 0.0
06/04:30am WNW 15 21 - - - - - - - 16.0 1012.6 0.0
06/04:00am WNW 15 22 - - - - - - - 16.0 1012.6 0.0
06/03:30am WNW 16 23 - - - - - - - 16.2 1012.7 0.0
06/03:00am WNW 14 20 - - - - - - - 16.2 1012.9 0.0
06/02:30am WNW 16 22 - - - - - - - 16.0 1012.9 0.0
06/02:00am WNW 17 22 - - - - - - - 16.1 1013.0 0.0
06/01:30am WNW 16 22 - - - - - - - 16.5 1013.1 0.0
06/01:00am WNW 15 20 - - - - - - - 16.6 1013.3 0.0
06/12:30am WNW 16 23 - - - - - - - 16.7 1013.4 0.0
06/12:00am WNW 17 21 - - - - - - - 16.9 1013.4 0.0
 
Date/Time
EDT
Wind Sea
Height
m
Swell Vis
km
Cloud Weather Temp
°C
Press
MSL
hPa
Rain since
9am
mm
Dir  Spd
kts
Gust
kts
Height
m
Period
s
Dir
05/11:30pm WNW 15 21 - - - - - - - 17.0 1013.5 0.0
05/11:00pm WNW 16 21 - - - - - - - 16.9 1013.7 0.0
05/10:30pm WNW 15 20 - - - - - - - 17.2 1013.9 0.0
05/10:00pm WNW 16 21 - - - - - - - 17.0 1014.1 0.0
05/09:30pm WNW 15 21 - - - - - - - 17.2 1013.9 0.0
05/09:00pm WNW 16 22 - - - - - - - 17.3 1013.6 0.0
05/08:30pm WNW 16 21 - - - - - - - 17.4 1013.5 0.0
05/08:00pm WNW 17 22 - - - - - - - 17.6 1013.3 0.0
05/07:30pm WNW 15 20 - - - - - - - 17.9 1013.0 0.0
05/07:00pm WNW 16 21 - - - - - - - 18.2 1012.9 0.0
05/06:30pm WNW 17 23 - - - - - - - 18.5 1012.8 0.0
05/06:00pm WNW 16 22 - - - - - - - 18.6 1012.7 0.0
05/05:30pm WNW 15 21 - - - - - - - 19.2 1012.9 0.0
05/05:00pm WNW 17 23 - - - - - - - 19.1 1012.7 0.0
05/04:30pm WNW 16 22 - - - - - - - 19.3 1012.5 0.0
05/04:00pm WNW 17 22 - - - - - - - 19.6 1012.5 0.0
05/03:30pm WNW 17 22 - - - - - - - 20.0 1012.5 0.0
05/03:00pm WNW 15 20 - - - - - - - 20.1 1012.4 0.0
05/02:30pm NW 16 20 - - - - - - - 19.9 1012.3 0.0
05/02:00pm NW 15 19 - - - - - - - 19.4 1012.3 0.0
05/01:30pm NW 14 19 - - - - - - - 19.4 1012.3 0.0
05/01:00pm NW 13 17 - - - - - - - 19.9 1012.4 0.0
05/12:30pm NW 12 16 - - - - - - - 19.7 1012.3 0.0
05/12:00pm NW 10 14 - - - - - - - 19.4 1012.2 0.0
05/11:30am NW 10 14 - - - - - - - 19.6 1012.0 0.0
05/11:00am WNW 9 13 - - - - - - - 19.0 1012.1 0.0
05/10:30am WNW 8 13 - - - - - - - 19.8 1011.8 0.0
05/10:00am W 9 13 - - - - - - - 19.0 1011.6 0.0
05/09:30am W 9 11 - - - - - - - 18.2 1011.3 0.0
05/09:00am W 8 10 - - - - - - - 17.1 1011.0 8.2
05/08:30am W 7 8 - - - - - - - 16.3 1010.5 8.2
05/08:00am WSW 5 7 - - - - - - - 15.5 1010.1 8.2
05/07:30am WSW 3 4 - - - - - - - 14.6 1009.6 8.2
05/07:00am WSW 5 7 - - - - - - - 13.4 1009.2 8.2
05/06:30am WSW 3 4 - - - - - - - 13.1 1008.6 8.2
05/06:00am W 4 7 - - - - - - - 13.3 1007.9 8.2
05/05:30am W 4 5 - - - - - - - 12.9 1007.4 8.2
05/05:00am WSW 4 6 - - - - - - - 12.9 1006.9 8.2
05/04:30am WSW 7 10 - - - - - - - 13.2 1006.5 8.2
05/04:00am WSW 8 10 - - - - - - - 13.3 1006.2 8.2
05/03:30am WSW 9 13 - - - - - - - 13.6 1005.9 8.2
05/03:00am WSW 10 15 - - - - - - - 14.1 1005.6 8.2
05/02:30am WSW 11 19 - - - - - - - 14.4 1005.3 8.2
05/02:00am WSW 9 15 - - - - - - - 14.5 1005.0 8.2
05/01:30am WSW 11 16 - - - - - - - 14.8 1004.5 8.2
05/01:00am WSW 12 18 - - - - - - - 14.8 1004.3 8.2
05/12:30am WSW 12 19 - - - - - - - 15.2 1003.9 8.2
05/12:00am W 12 20 - - - - - - - 15.5 1003.7 8.2
 
Date/Time
EDT
Wind Sea
Height
m
Swell Vis
km
Cloud Weather Temp
°C
Press
MSL
hPa
Rain since
9am
mm
Dir  Spd
kts
Gust
kts
Height
m
Period
s
Dir
04/11:30pm WSW 12 18 - - - - - - - 15.8 1003.4 8.2
04/11:00pm WSW 10 14 - - - - - - - 16.4 1003.4 8.2
04/10:30pm WSW 11 18 - - - - - - - 17.0 1003.2 8.2
04/10:00pm WSW 13 21 - - - - - - - 17.1 1002.6 8.2
04/09:38pm WSW 15 25 - - - - - - - 17.4 1002.2 8.2
04/09:30pm WSW 14 25 - - - - - - - 17.4 1002.0 8.2
04/09:00pm WSW 14 22 - - - - - - - 17.3 1001.1 8.2
04/08:30pm W 20 28 - - - - - - - 17.7 1000.4 8.2
04/08:00pm W 24 31 - - - - - - - 17.9 999.8 8.2
04/07:30pm W 18 24 - - - - - - - 18.2 999.2 8.2
04/07:00pm W 18 24 - - - - - - - 18.5 998.6 8.2
04/06:30pm W 17 25 - - - - - - - 18.4 997.9 8.2
04/06:00pm W 13 19 - - - - - - - 19.5 997.5 8.2
04/05:30pm W 17 22 - - - - - - - 19.6 997.3 8.2
04/05:00pm WNW 13 19 - - - - - - - 18.5 997.0 8.2
04/04:30pm W 14 20 - - - - - - - 18.1 997.0 8.2
04/04:00pm W 12 20 - - - - - - - 16.8 997.2 8.2
04/03:30pm W 17 23 - - - - - - - 16.8 997.0 8.2
04/03:16pm WSW 15 25 - - - - - - - 16.9 996.8 8.2
04/03:00pm W 16 24 - - - - - - - 17.0 996.6 8.2
04/02:30pm W 17 24 - - - - - - - 17.3 996.4 8.2
04/02:00pm W 15 22 - - - - - - - 16.4 996.3 8.2
04/01:30pm W 16 22 - - - - - - - 17.1 996.1 8.2
04/01:00pm W 12 16 - - - - - - - 16.6 996.1 8.2
04/12:30pm W 7 9 - - - - - - - 16.1 996.1 8.2
04/12:00pm WNW 4 7 - - - - - - Recent precip. 15.7 996.1 8.2
04/11:30am WNW 7 11 - - - - - - - 14.6 996.4 6.4
04/11:00am NW 11 15 - - - - - - - 15.1 996.4 4.2
04/10:30am WNW 11 16 - - - - - - - 15.1 996.5 4.2
04/10:00am WNW 13 19 - - - - - - - 14.8 996.5 4.2
04/09:30am WNW 11 15 - - - - - - - 14.3 996.6 2.0
04/09:00am NW 12 16 - - - - - - - 16.1 996.3 4.4
04/08:30am WNW 15 20 - - - - - - - 16.7 996.2 4.4
04/08:00am WNW 11 15 - - - - - - - 16.9 995.7 4.4
04/07:30am WNW 11 16 - - - - - - - 16.0 995.7 4.4

Other formats

Comma delimited format used in spreadsheet applications
http://www.bom.gov.au/fwo/IDT60701/IDT60701.95985.axf

JavaScript Object Notation format (JSON) in row-major order
http://www.bom.gov.au/fwo/IDT60701/IDT60701.95985.json

Data quality

Most of these data are generated automatically and are frequently updated. Quality checks on data are not normally performed. It is possible for incorrect values to appear. Refer to information at About Latest Weather Observations and please check the disclaimer before using these data.